ADDS METAR Data INFO
IDs: Format: Raw Decoded Include TAF

Data at: 0404 UTC 11 Dec 2017

KMBS 110353Z 33011KT 10SM FEW015 BKN032 OVC047 M04/M06 A2999 RMK AO2 SLP166 T10441061
KMBS 110302Z 31009KT 10SM BKN019 OVC045 M03/M05 A2997 RMK AO2 T10331050
KMBS 110253Z 31009KT 10SM SCT021 SCT029 OVC046 M03/M04 A2997 RMK AO2 SLP158 T10331044 51019
KMBS 110153Z 29010KT 10SM FEW026 OVC045 M03/M04 A2996 RMK AO2 SLP154 T10331044
KMBS 110146Z 28009KT 10SM SCT026 OVC047 M03/M04 A2996 RMK AO2 T10331044
KMBS 110122Z 29009KT 10SM BKN028 OVC034 M03/M04 A2995 RMK AO2 T10281039
KMBS 110053Z 27009KT 10SM SCT041 OVC055 M03/M04 A2993 RMK AO2 SLP146 T10331039
KMBS 110001Z 25007KT 6SM BR FEW007 SCT028 OVC042 M03/M03 A2991 RMK AO2 T10331033
KMBS 102353Z 25006KT 6SM BR SCT028 OVC040 M03/M03 A2991 RMK AO2 SNE41 SLP139 P0000 60000 I6001 T10331033 11022 21033 51019
KMBS 102327Z 26008KT 5SM -SN BR FEW006 BKN017 OVC025 M03/M03 A2991 RMK AO2 P0000 T10281033
KMBS 102253Z 25007KT 3SM -SN BR OVC005 M03/M03 A2990 RMK AO2 SLP134 P0000 T10281033
KMBS 102153Z 24008KT 1 1/2SM -SN BR OVC006 M03/M03 A2988 RMK AO2 SFC VIS 2 SLP127 P0000 T10331033
KMBS 102053Z 24008KT 1 1/2SM -SN BR OVC007 M03/M03 A2986 RMK AO2 SFC VIS 1 3/4 SNB33 SLP120 P0000 60000 I1001 I3001 T10331033 53008
KMBS 102032Z 23009KT 1 3/4SM BR BKN007 OVC011 M03/M04 A2985 RMK AO2 I1001 T10331039
KMBS 102025Z 23010KT 2SM BR OVC009 M03/M04 A2985 RMK AO2 I1001 T10331039
KMBS 102015Z 23010KT 2SM BR SCT007 BKN011 OVC030 M03/M04 A2985 RMK AO2 SFC VIS 2 1/2 I1000 T10331039
KMBS 102007Z 23010KT 2SM BR SCT011 OVC030 M03/M04 A2984 RMK AO2 SFC VIS 2 1/2 I1000 T10331039
KMBS 102004Z 23011KT 2 1/2SM BR SCT011 OVC032 M03/M04 A2984 RMK AO2 T10331039
KMBS 101953Z 23012KT 3SM BR FEW012 OVC032 M03/M04 A2984 RMK AO2 SNB18E28 SLP114 P0000 I1000 T10331044
KMBS 101942Z 23013KT 3SM BR FEW012 OVC032 M03/M04 A2983 RMK AO2 SNB18E28 P0000 T10331044
KMBS 101853Z 24012KT 10SM OVC023 M02/M05 A2983 RMK AO2 SNE03 SLP109 P0000 T10221050
KMBS 101753Z 23012G19KT 4SM -SN BR OVC016 M03/M04 A2983 RMK AO2 SNB24 SLP112 P0000 60000 T10281044 11022 21044 56014
KMBS 101653Z 23013KT 10SM BKN022 BKN028 OVC045 M02/M06 A2985 RMK AO2 SLP116 T10221056
KMBS 101651Z 23013KT 10SM BKN021 BKN029 OVC048 M02/M06 A2985 RMK AO2
KMBS 101636Z 23011KT 10SM SCT021 BKN030 OVC046 M02/M05 A2985 RMK AO2 T10221050
KMBS 101553Z 23011KT 10SM BKN023 OVC039 M03/M06 A2988 RMK AO2 SLP127 T10331056
KMBS 101512Z 23011KT 10SM SCT021 OVC040 M03/M06 A2987 RMK AO2 T10331056
KMBS 101453Z 23009KT 10SM OVC021 M04/M06 A2987 RMK AO2 SLP125 60000 T10391056 58003
KMBS 101410Z 24008KT 10SM BKN024 OVC044 M04/M06 A2988 RMK AO2 T10391061
KMBS 101353Z 24008KT 10SM FEW028 BKN045 OVC090 M04/M06 A2988 RMK AO2 SNE40 SLP127 P0000 T10441061
KMBS 101253Z 24010KT 7SM -SN BKN050 OVC110 M04/M07 A2988 RMK AO2 SNB33 SLP127 P0000 T10441067
KMBS 101153Z 24008KT 10SM OVC080 M04/M07 A2988 RMK AO2 SLP128 T10441072 11044 21061 55004
KMBS 101126Z 25009KT 10SM SCT025 BKN031 OVC070 M04/M07 A2988 RMK AO2 T10441067
KMBS 101053Z AUTO 25008KT 10SM OVC025 M04/M07 A2988 RMK AO2 SLP126 T10441067
KMBS 101031Z AUTO 25009KT 10SM OVC029 M04/M07 A2988 RMK AO2 T10441067
KMBS 100953Z AUTO 23008KT 10SM OVC034 M04/M07 A2988 RMK AO2 SLP128 T10441067
KMBS 100853Z AUTO 22007KT 10SM OVC036 M05/M07 A2989 RMK AO2 SLP132 T10501067 58009
KMBS 100753Z AUTO 22007KT 10SM BKN038 OVC120 M06/M07 A2990 RMK AO2 SLP135 T10561067
KMBS 100653Z AUTO 24005KT 10SM OVC043 M06/M07 A2991 RMK AO2 SLP139 T10561072
KMBS 100553Z AUTO 28005KT 10SM OVC045 M06/M07 A2992 RMK AO2 SLP141 T10561072 11022 21072 50005
KMBS 100453Z AUTO 27005KT 10SM BKN055 M07/M08 A2992 RMK AO2 SLP144 T10671083 410171067
KMBS 100353Z AUTO 32008KT 10SM CLR M06/M08 A2992 RMK AO2 SLP140 T10561078
KMBS 100253Z 32009KT 10SM CLR M05/M08 A2990 RMK AO2 SLP136 T10501078 51016
KMBS 100153Z 32007KT 10SM BKN044 M04/M07 A2989 RMK AO2 SLP132 T10391072
KMBS 100053Z 31010KT 10SM SCT028 OVC039 M03/M07 A2988 RMK AO2 SLP129 T10281067
KMBS 100028Z 31010KT 10SM BKN029 OVC039 M02/M06 A2987 RMK AO2 T10221061
KMBS 092353Z 31008KT 10SM SCT030 OVC040 M02/M06 A2986 RMK AO2 SLP119 T10221061 11017 21028 53016
KMBS 092308Z 33012KT 10SM BKN031 OVC038 M02/M06 A2984 RMK AO2 T10221056
KMBS 092253Z AUTO 34010KT 10SM OVC029 M02/M04 A2984 RMK AO2 SLP113 T10171044
KMBS 092246Z AUTO 34007KT 10SM OVC029 M02/M04 A2984 RMK AO2 T10171044
KMBS 092153Z 33007KT 10SM OVC030 M02/M04 A2981 RMK AO2 SLP104 T10171039
KMBS 092148Z 34008KT 10SM OVC030 M02/M04 A2981 RMK AO2
KMBS 092053Z 33009KT 8SM OVC021 M02/M04 A2978 RMK AO2 SLP094 T10171039 53015
KMBS 091953Z 34007KT 9SM OVC019 M02/M04 A2976 RMK AO2 SLP085 T10171039
KMBS 091853Z 35004KT 9SM OVC016 M02/M04 A2975 RMK AO2 SLP082 T10221044
KMBS 091805Z 00000KT 9SM OVC017 M03/M04 A2974 RMK AO2 T10281044
KMBS 091753Z 00000KT 7SM FEW010 BKN013 OVC021 M03/M04 A2974 RMK AO2 SNE23 SLP078 P0000 60000 T10281044 11022 21039 58003
KMBS 091742Z 00000KT 8SM FEW011 OVC021 M03/M04 A2974 RMK AO2 SNE23 P0000 T10281044
KMBS 091713Z 00000KT 3SM -SN BR BKN010 BKN038 OVC048 M03/M04 A2973 RMK AO2 P0000 T10281044
KMBS 091653Z 16003KT 2 1/2SM -SN BR FEW010 BKN018 OVC048 M03/M05 A2974 RMK AO2 SLP078 P0000 T10331050
KMBS 091634Z 17003KT 2SM -SN BR SCT010 OVC021 M03/M04 A2974 RMK AO2 P0000 T10331044
KMBS 091618Z 14004KT 1 3/4SM -SN BR SCT013 OVC021 M03/M05 A2975 RMK AO2 P0000 T10331050
KMBS 091610Z 12003KT 2SM -SN BR BKN012 OVC021 M03/M04 A2975 RMK AO2 P0000 T10331044